createdAt,value
2023-01-05T00:09:42.893Z,8.00
2023-01-05T00:23:42.870Z,7.60
2023-01-05T00:37:42.894Z,7.60
2023-01-05T00:51:42.899Z,7.10
2023-01-05T01:05:42.947Z,6.25
2023-01-05T01:14:04.760Z,6.55
2023-01-05T01:27:05.432Z,6.50
2023-01-05T01:31:58.648Z,6.15
2023-01-05T01:44:58.299Z,5.50
2023-01-05T01:58:58.229Z,5.80
2023-01-05T02:12:58.225Z,5.20
2023-01-05T02:27:58.475Z,4.90
2023-01-05T02:41:58.540Z,5.00
2023-01-05T02:55:58.491Z,4.40
2023-01-05T03:09:58.604Z,4.50
2023-01-05T03:23:58.568Z,4.40
2023-01-05T03:37:58.637Z,4.50
2023-01-05T03:51:58.609Z,4.10
2023-01-05T04:05:58.692Z,3.90
2023-01-05T04:19:58.781Z,3.80
2023-01-05T04:33:58.792Z,3.70
2023-01-05T04:47:58.779Z,3.30
2023-01-05T05:01:58.963Z,3.40
2023-01-05T05:15:58.950Z,3.60
2023-01-05T05:29:58.882Z,3.70
2023-01-05T05:43:59.009Z,3.30
2023-01-05T05:57:58.886Z,3.30
2023-01-05T06:11:58.888Z,3.40
2023-01-05T06:25:58.978Z,3.40
2023-01-05T06:39:59.018Z,3.40
2023-01-05T06:54:59.072Z,3.30
2023-01-05T07:09:59.007Z,3.30
2023-01-05T07:24:59.064Z,3.40
2023-01-05T07:39:59.039Z,3.80
2023-01-05T07:54:59.061Z,4.00
2023-01-05T08:09:59.070Z,3.70
2023-01-05T08:24:59.167Z,3.80
2023-01-05T08:39:59.076Z,3.90
2023-01-05T08:54:59.169Z,3.90
2023-01-05T09:09:59.199Z,4.10
2023-01-05T09:24:59.278Z,4.60
2023-01-05T09:39:59.272Z,4.40
2023-01-05T09:54:59.268Z,4.40
2023-01-05T10:09:59.318Z,4.60
2023-01-05T10:24:56.952Z,4.60
2023-01-05T10:39:57.044Z,4.60
2023-01-05T10:54:56.929Z,4.60
2023-01-05T11:09:57.304Z,4.50
2023-01-05T11:24:57.390Z,5.00
2023-01-05T11:39:57.430Z,5.30
2023-01-05T11:54:57.551Z,4.90
2023-01-05T12:09:57.464Z,4.60
2023-01-05T12:24:57.513Z,5.10
2023-01-05T12:39:57.604Z,5.40
2023-01-05T12:54:57.619Z,5.60
2023-01-05T13:10:02.245Z,5.55
2023-01-05T13:24:57.726Z,5.65
2023-01-05T13:39:57.707Z,5.90
2023-01-05T13:55:01.677Z,5.40
2023-01-05T14:09:57.926Z,5.60
2023-01-05T14:24:57.945Z,5.40
2023-01-05T14:40:00.458Z,6.00
2023-01-05T14:55:04.786Z,6.00
2023-01-05T15:09:58.065Z,5.70
2023-01-05T15:24:58.068Z,6.40
2023-01-05T15:39:58.115Z,6.00
2023-01-05T15:54:58.077Z,6.00
2023-01-05T16:09:58.155Z,6.70
2023-01-05T16:23:58.193Z,6.50
2023-01-05T16:37:58.228Z,6.60
2023-01-05T16:51:58.266Z,7.00
2023-01-05T17:05:58.381Z,7.50
2023-01-05T17:19:58.425Z,7.50
2023-01-05T17:33:58.497Z,7.20
2023-01-05T17:47:58.514Z,7.30
2023-01-05T18:01:58.561Z,7.50
2023-01-05T18:29:58.649Z,7.60
2023-01-05T18:43:58.776Z,7.55
2023-01-05T18:57:58.708Z,7.50
2023-01-05T19:11:58.716Z,7.60
2023-01-05T19:25:58.736Z,8.20
2023-01-05T19:39:58.795Z,8.00
2023-01-05T19:53:58.868Z,8.10
2023-01-05T20:07:58.845Z,8.60
2023-01-05T20:21:58.893Z,8.80
2023-01-05T20:35:58.900Z,9.30
2023-01-05T20:49:59.055Z,10.30
2023-01-05T21:03:59.021Z,10.50
2023-01-05T21:17:59.024Z,11.30
2023-01-05T21:31:59.041Z,11.60
2023-01-05T21:45:59.085Z,11.50
2023-01-05T21:59:59.049Z,12.00
2023-01-05T22:13:59.091Z,12.30
2023-01-05T22:27:59.130Z,12.10
2023-01-05T22:41:59.136Z,12.25
2023-01-05T22:55:59.164Z,12.40
2023-01-05T23:09:59.354Z,12.80
2023-01-05T23:23:59.313Z,12.70
2023-01-05T23:37:59.351Z,12.50
2023-01-05T23:51:59.352Z,12.50
